メインページ
METAR-TAF:

METAR-TAF

空港 :

Fort St. John, ブリティッシュコロンビア州, カナダ

緯度: 56-14N, 経度: 120-44W, 海抜: 695m

現時点の気象観測

当レポートは46分前の02:00(UTC)に作成
南西の風 5kt
気温 -4°C
湿度 63%
気圧 1006 hPa
視程: 24.1km
高度13000ftの千切れ雲あり
高度20000ftの曇り

METAR: CYXJ 070200Z 23005KT 15SM BKN130 OVC200 M04/M10 A2971 RMK AC7CI1 SLP106

時間: 19:46 (02:46 UTC)

予報

当レポートは2時間8分前の00:38(UTC)に作成
予報は07日の 01時(UTC)から 07日の 13時(UTC)まで有効
西/南西の風 10kt
視程: 10km
高度14000ftの千切れ雲あり
07日の 05時(UTC)から 07日の 07時(UTC)まで徐々に
北/北西の風 10kt

TAF: CYXJ 070038Z 0701/0713 25010KT P6SM BKN140 BECMG 0705/0707 33010KT RMK NXT FCST BY 070700Z

4,000以上の空港の気象観測と天気予報(METAR報とTAF報)

利用可能な観測所は地図上に黄色い丸と赤い丸で示す。

丸の上にカーソルを重ねると観測所名を参照できる。

次にクリックすると気象観測と天気予報を参照できる。

マップの切り替え:黒色「×」印の緑ボタンをクリックして拡大、「-」印の緑ボタンをクリックして縮小、緑色の三角印をクリックして隣りの地図に切り替え


METAR-TAF: